createdAt,value
2017-02-24T00:00:35.975Z,0
2017-02-24T00:01:47.405Z,0
2017-02-24T00:02:58.836Z,0
2017-02-24T00:04:10.291Z,0
2017-02-24T00:05:21.765Z,0
2017-02-24T00:06:33.211Z,0
2017-02-24T00:07:44.653Z,0
2017-02-24T00:08:56.092Z,0
2017-02-24T00:10:07.537Z,0
2017-02-24T00:11:18.975Z,0
2017-02-24T00:12:30.414Z,0
2017-02-24T00:13:42.056Z,0
2017-02-24T00:14:53.483Z,0
2017-02-24T00:16:05.170Z,0
2017-02-24T00:17:16.605Z,0
2017-02-24T00:18:28.032Z,0
2017-02-24T00:19:39.464Z,0
2017-02-24T00:20:50.921Z,0
2017-02-24T00:22:02.368Z,0
2017-02-24T00:23:13.808Z,0
2017-02-24T00:24:25.247Z,0
2017-02-24T00:25:36.685Z,0
2017-02-24T00:26:48.180Z,0
2017-02-24T00:27:59.613Z,0
2017-02-24T00:29:11.037Z,0
2017-02-24T00:30:22.470Z,0
2017-02-24T00:31:33.897Z,0
2017-02-24T00:32:45.341Z,0
2017-02-24T00:33:56.792Z,0
2017-02-24T00:35:08.218Z,0
2017-02-24T00:36:19.652Z,0
2017-02-24T00:37:31.288Z,0
2017-02-24T00:38:42.727Z,0
2017-02-24T00:39:54.397Z,0
2017-02-24T00:41:06.031Z,0
2017-02-24T00:42:17.475Z,0
2017-02-24T00:43:29.114Z,0
2017-02-24T00:44:40.551Z,0
2017-02-24T00:45:52.000Z,0
2017-02-24T00:47:03.440Z,0
2017-02-24T00:48:14.912Z,0
2017-02-24T00:49:26.346Z,0
2017-02-24T00:50:37.768Z,0
2017-02-24T00:51:49.206Z,0
2017-02-24T00:53:00.647Z,0
2017-02-24T00:54:12.141Z,0
2017-02-24T00:55:23.594Z,0
2017-02-24T00:56:35.030Z,0
2017-02-24T00:57:46.470Z,0
2017-02-24T00:58:57.968Z,0
2017-02-24T01:00:09.620Z,0
2017-02-24T01:01:21.261Z,0
2017-02-24T01:02:32.706Z,0
2017-02-24T01:03:44.135Z,0
2017-02-24T01:04:55.575Z,0
2017-02-24T01:06:07.018Z,0
2017-02-24T01:07:18.456Z,0
2017-02-24T01:08:29.908Z,0
2017-02-24T01:09:41.586Z,0
2017-02-24T01:10:53.027Z,0
2017-02-24T01:12:04.463Z,0
2017-02-24T01:13:15.908Z,0
2017-02-24T01:14:27.331Z,0
2017-02-24T01:15:38.768Z,0
2017-02-24T01:16:50.209Z,0
2017-02-24T01:18:01.654Z,0
2017-02-24T01:19:13.114Z,0
2017-02-24T01:20:24.590Z,0
2017-02-24T01:21:36.030Z,0
2017-02-24T01:22:47.468Z,0
2017-02-24T01:23:58.900Z,0
2017-02-24T01:25:10.330Z,0
2017-02-24T01:26:21.803Z,0
2017-02-24T01:27:33.243Z,0
2017-02-24T01:28:45.088Z,0
2017-02-24T01:29:56.519Z,0
2017-02-24T01:31:07.966Z,0
2017-02-24T01:32:19.403Z,0
2017-02-24T01:33:30.833Z,0
2017-02-24T01:34:42.258Z,0
2017-02-24T01:35:53.679Z,0
2017-02-24T01:37:05.168Z,0
2017-02-24T01:38:16.807Z,0
2017-02-24T01:39:28.240Z,0
2017-02-24T01:40:39.682Z,0
2017-02-24T01:41:51.114Z,0
2017-02-24T01:43:02.601Z,0
2017-02-24T01:44:14.039Z,0
2017-02-24T01:45:25.664Z,0
2017-02-24T01:46:37.104Z,0
2017-02-24T01:47:48.537Z,0
2017-02-24T01:49:00.176Z,0
2017-02-24T01:50:11.603Z,0
2017-02-24T01:51:23.034Z,0
2017-02-24T01:52:34.479Z,0
2017-02-24T01:53:45.957Z,0
2017-02-24T01:54:57.375Z,0
2017-02-24T01:56:08.842Z,0
2017-02-24T01:57:20.287Z,0
2017-02-24T01:58:31.942Z,0
2017-02-24T01:59:43.396Z,0
2017-02-24T02:00:54.831Z,0
2017-02-24T02:02:06.280Z,0
2017-02-24T02:03:17.713Z,0
2017-02-24T02:04:29.332Z,0
2017-02-24T02:05:40.762Z,0
2017-02-24T02:06:52.189Z,0
2017-02-24T02:08:03.652Z,0
2017-02-24T02:09:15.377Z,0
2017-02-24T02:10:26.883Z,0
2017-02-24T02:11:38.385Z,0
2017-02-24T02:12:49.892Z,0
2017-02-24T02:14:01.602Z,0
2017-02-24T02:15:13.152Z,0
2017-02-24T02:16:24.662Z,0
2017-02-24T02:17:36.387Z,0
2017-02-24T02:18:48.107Z,0
2017-02-24T02:19:59.596Z,0
2017-02-24T02:21:11.143Z,0
2017-02-24T02:22:22.636Z,0
2017-02-24T02:23:34.141Z,0
2017-02-24T02:24:45.639Z,0
2017-02-24T02:25:57.193Z,0
2017-02-24T02:27:08.897Z,0
2017-02-24T02:28:20.405Z,0
2017-02-24T02:29:31.893Z,0
2017-02-24T02:30:43.402Z,0
2017-02-24T02:31:54.895Z,0
2017-02-24T02:33:06.592Z,0
2017-02-24T02:34:18.496Z,0
2017-02-24T02:35:30.001Z,0
2017-02-24T02:36:41.553Z,0
2017-02-24T02:37:53.039Z,0
2017-02-24T02:39:04.534Z,0
2017-02-24T02:40:16.045Z,0
2017-02-24T02:41:27.739Z,0
2017-02-24T02:42:39.282Z,0
2017-02-24T02:43:50.959Z,0
2017-02-24T02:45:02.464Z,0
2017-02-24T02:46:13.958Z,0
2017-02-24T02:47:25.480Z,0
2017-02-24T02:48:36.980Z,0
2017-02-24T02:49:48.474Z,0
2017-02-24T02:50:59.954Z,0
2017-02-24T02:52:11.645Z,0
2017-02-24T02:53:23.166Z,0
2017-02-24T02:54:34.660Z,0
2017-02-24T02:55:46.146Z,0
2017-02-24T02:56:57.648Z,0
2017-02-24T02:58:09.160Z,0
2017-02-24T02:59:20.660Z,0
2017-02-24T03:00:32.144Z,0
2017-02-24T03:01:43.647Z,0
2017-02-24T03:02:55.208Z,0
2017-02-24T03:04:06.903Z,0
2017-02-24T03:05:18.382Z,0
2017-02-24T03:06:29.889Z,0
2017-02-24T03:07:41.385Z,0
2017-02-24T03:08:52.893Z,0
2017-02-24T03:10:04.592Z,0
2017-02-24T03:11:16.089Z,0
2017-02-24T03:12:27.595Z,0
2017-02-24T03:13:39.553Z,0
2017-02-24T03:14:51.258Z,0
2017-02-24T03:16:02.732Z,0
2017-02-24T03:17:14.236Z,0
2017-02-24T03:18:25.731Z,0
2017-02-24T03:19:37.217Z,0
2017-02-24T03:20:48.758Z,0
2017-02-24T03:22:00.250Z,0
2017-02-24T03:23:11.746Z,0
2017-02-24T03:24:23.290Z,0
2017-02-24T03:25:34.787Z,0
2017-02-24T03:26:46.280Z,0
2017-02-24T03:27:57.791Z,0
2017-02-24T03:29:09.304Z,0
2017-02-24T03:30:20.788Z,0
2017-02-24T03:31:32.302Z,0
2017-02-24T03:32:43.826Z,0
2017-02-24T03:33:55.322Z,0
2017-02-24T03:35:06.864Z,0
2017-02-24T03:36:18.347Z,0
2017-02-24T03:37:29.913Z,0
2017-02-24T03:38:41.411Z,0
2017-02-24T03:39:52.923Z,0
2017-02-24T03:41:04.406Z,0
2017-02-24T03:42:15.897Z,0
2017-02-24T03:43:27.413Z,0
2017-02-24T03:44:39.124Z,0
2017-02-24T03:45:50.683Z,0
2017-02-24T03:47:02.186Z,0
2017-02-24T03:48:13.668Z,0
2017-02-24T03:49:25.381Z,0
2017-02-24T03:50:36.880Z,0
2017-02-24T03:51:48.577Z,0
2017-02-24T03:53:00.066Z,0
2017-02-24T03:54:11.565Z,0
2017-02-24T03:55:23.460Z,0
2017-02-24T03:56:35.003Z,0
2017-02-24T03:57:46.902Z,0
2017-02-24T03:58:58.414Z,0
2017-02-24T04:00:09.915Z,0
2017-02-24T04:01:21.414Z,0
2017-02-24T04:02:33.132Z,0
2017-02-24T04:03:44.619Z,0
2017-02-24T04:04:56.120Z,0
2017-02-24T04:06:07.814Z,0
2017-02-24T04:07:19.361Z,0
2017-02-24T04:08:30.847Z,0
2017-02-24T04:09:42.353Z,0
2017-02-24T04:10:53.835Z,0
2017-02-24T04:12:05.553Z,0
2017-02-24T04:13:17.257Z,0
2017-02-24T04:14:28.738Z,0
2017-02-24T04:15:40.275Z,0
2017-02-24T04:16:51.765Z,0
2017-02-24T04:18:03.262Z,0
2017-02-24T04:19:14.763Z,0
2017-02-24T04:20:26.272Z,0
2017-02-24T04:21:37.770Z,0
2017-02-24T04:22:49.248Z,0
2017-02-24T04:24:00.785Z,0
2017-02-24T04:25:12.253Z,0
2017-02-24T04:26:23.968Z,0
2017-02-24T04:27:35.474Z,0
2017-02-24T04:28:46.961Z,0
2017-02-24T04:29:58.458Z,0
2017-02-24T04:31:09.941Z,0
2017-02-24T04:32:21.430Z,0
2017-02-24T04:33:32.943Z,0
2017-02-24T04:34:44.477Z,0
2017-02-24T04:35:56.178Z,0
2017-02-24T04:37:07.649Z,0
2017-02-24T04:38:19.108Z,0
2017-02-24T04:39:30.605Z,0
2017-02-24T04:40:42.576Z,0
2017-02-24T04:41:54.087Z,0
2017-02-24T04:43:05.585Z,0
2017-02-24T04:44:17.081Z,0
2017-02-24T04:45:28.650Z,0
2017-02-24T04:46:40.156Z,0
2017-02-24T04:47:51.646Z,0
2017-02-24T04:49:03.342Z,0
2017-02-24T04:50:14.848Z,0
2017-02-24T04:51:26.328Z,0
2017-02-24T04:52:37.848Z,0
2017-02-24T04:53:49.361Z,0
2017-02-24T04:55:00.852Z,0
2017-02-24T04:56:12.392Z,0
2017-02-24T04:57:24.315Z,0
2017-02-24T04:58:35.824Z,0
2017-02-24T04:59:47.303Z,0
2017-02-24T05:00:58.813Z,0
2017-02-24T05:02:10.289Z,0
2017-02-24T05:03:22.397Z,0
2017-02-24T05:04:33.889Z,0
2017-02-24T05:05:45.398Z,0
2017-02-24T05:06:56.946Z,0
2017-02-24T05:08:08.442Z,0
2017-02-24T05:09:19.968Z,0
2017-02-24T05:10:31.482Z,0
2017-02-24T05:11:42.987Z,0
2017-02-24T05:12:54.660Z,0
2017-02-24T05:14:06.142Z,0
2017-02-24T05:15:17.626Z,0
2017-02-24T05:16:29.132Z,0
2017-02-24T05:17:40.701Z,0
2017-02-24T05:18:52.220Z,0
2017-02-24T05:20:03.717Z,0
2017-02-24T05:21:15.214Z,0
2017-02-24T05:22:26.923Z,0
2017-02-24T05:23:38.607Z,0
2017-02-24T05:24:50.343Z,0
2017-02-24T05:26:01.868Z,0
2017-02-24T05:27:13.377Z,0
2017-02-24T05:28:25.115Z,0
2017-02-24T05:29:36.610Z,0
2017-02-24T05:30:48.105Z,0
2017-02-24T05:31:59.631Z,0
2017-02-24T05:33:11.356Z,0
2017-02-24T05:34:22.843Z,0
2017-02-24T05:35:34.353Z,0
2017-02-24T05:36:45.839Z,0
2017-02-24T05:37:57.384Z,0
2017-02-24T05:39:08.903Z,0
2017-02-24T05:40:20.401Z,0
2017-02-24T05:41:31.917Z,0
2017-02-24T05:42:43.412Z,0
2017-02-24T05:43:54.931Z,0
2017-02-24T05:45:06.432Z,0
2017-02-24T05:46:17.915Z,0
2017-02-24T05:47:29.624Z,0
2017-02-24T05:48:41.109Z,0
2017-02-24T05:49:52.655Z,0
2017-02-24T05:51:04.350Z,0
2017-02-24T05:52:16.049Z,0
2017-02-24T05:53:27.983Z,4
2017-02-24T05:54:39.685Z,4
2017-02-24T05:55:51.205Z,0
2017-02-24T05:57:02.692Z,4
2017-02-24T05:58:14.187Z,4
2017-02-24T05:59:25.697Z,4
2017-02-24T06:00:37.248Z,4
2017-02-24T06:01:48.954Z,8
2017-02-24T06:03:00.460Z,8
2017-02-24T06:04:11.967Z,12
2017-02-24T06:05:23.670Z,12
2017-02-24T06:06:35.163Z,16
2017-02-24T06:07:46.655Z,20
2017-02-24T06:08:58.176Z,24
2017-02-24T06:10:09.681Z,28
2017-02-24T06:11:21.432Z,36
2017-02-24T06:12:32.917Z,40
2017-02-24T06:13:44.406Z,48
2017-02-24T06:14:55.900Z,56
2017-02-24T06:16:07.399Z,68
2017-02-24T06:17:18.954Z,76
2017-02-24T06:18:30.850Z,88
2017-02-24T06:19:42.341Z,100
2017-02-24T06:20:53.833Z,112
2017-02-24T06:22:05.527Z,132
2017-02-24T06:23:17.020Z,148
2017-02-24T06:24:28.485Z,168
2017-02-24T06:25:39.995Z,188
2017-02-24T06:26:51.501Z,216
2017-02-24T06:28:03.041Z,240
2017-02-24T06:29:14.528Z,264
2017-02-24T06:30:26.049Z,296
2017-02-24T06:31:37.547Z,328
2017-02-24T06:32:49.095Z,356
2017-02-24T06:34:00.599Z,388
2017-02-24T06:35:12.105Z,416
2017-02-24T06:36:23.806Z,444
2017-02-24T06:37:35.697Z,464
2017-02-24T06:38:47.396Z,468
2017-02-24T06:39:58.910Z,476
2017-02-24T06:41:10.400Z,488
2017-02-24T06:42:21.875Z,512
2017-02-24T06:43:33.406Z,536
2017-02-24T06:44:45.301Z,560
2017-02-24T06:45:56.809Z,608
2017-02-24T06:47:08.301Z,672
2017-02-24T06:48:19.999Z,736
2017-02-24T06:49:31.534Z,784
2017-02-24T06:50:43.031Z,816
2017-02-24T06:51:54.706Z,824
2017-02-24T06:53:06.185Z,716
2017-02-24T06:54:17.698Z,592
2017-02-24T06:55:29.369Z,516
2017-02-24T06:56:40.850Z,512
2017-02-24T06:57:52.334Z,540
2017-02-24T06:59:03.889Z,568
2017-02-24T07:00:15.403Z,600
2017-02-24T07:01:26.945Z,612
2017-02-24T07:02:38.657Z,660
2017-02-24T07:03:50.355Z,644
2017-02-24T07:05:01.835Z,620
2017-02-24T07:06:13.317Z,628
2017-02-24T07:07:24.810Z,656
2017-02-24T07:08:36.306Z,688
2017-02-24T07:09:48.005Z,716
2017-02-24T07:10:59.734Z,728
2017-02-24T07:12:11.226Z,748
2017-02-24T07:13:22.743Z,776
2017-02-24T07:14:34.217Z,780
2017-02-24T07:15:45.721Z,820
2017-02-24T07:16:57.220Z,896
2017-02-24T07:18:08.721Z,1056
2017-02-24T07:19:20.234Z,1280
2017-02-24T07:20:31.781Z,1528
2017-02-24T07:21:43.258Z,1892
2017-02-24T07:22:54.747Z,2524
2017-02-24T07:24:06.260Z,3116
2017-02-24T07:25:17.769Z,3632
2017-02-24T07:26:29.283Z,4188
2017-02-24T07:27:40.781Z,4444
2017-02-24T07:28:52.484Z,4376
2017-02-24T07:30:03.962Z,4412
2017-02-24T07:31:15.538Z,4652
2017-02-24T07:32:27.015Z,4828
2017-02-24T07:33:38.493Z,5044
2017-02-24T07:34:49.981Z,6008
2017-02-24T07:36:01.499Z,7108
2017-02-24T07:37:12.996Z,6228
2017-02-24T07:38:24.479Z,5920
2017-02-24T07:39:35.967Z,6408
2017-02-24T07:40:47.467Z,7752
2017-02-24T07:41:59.063Z,7052
2017-02-24T07:43:10.751Z,6616
2017-02-24T07:44:22.279Z,6060
2017-02-24T07:45:33.761Z,5680
2017-02-24T07:46:45.265Z,5608
2017-02-24T07:47:56.784Z,5916
2017-02-24T07:49:08.331Z,6216
2017-02-24T07:50:19.832Z,6012
2017-02-24T07:51:31.358Z,5804
2017-02-24T07:52:43.330Z,5668
2017-02-24T07:53:55.016Z,5644
2017-02-24T07:55:06.505Z,5684
2017-02-24T07:56:17.995Z,5792
2017-02-24T07:57:29.519Z,6012
2017-02-24T07:58:41.035Z,6636
2017-02-24T07:59:52.528Z,7808
2017-02-24T08:01:04.021Z,7328
2017-02-24T08:02:15.533Z,6992
2017-02-24T08:03:27.276Z,7232
2017-02-24T08:04:38.958Z,7632
2017-02-24T08:05:50.474Z,8172
2017-02-24T08:07:01.961Z,8760
2017-02-24T08:08:13.444Z,9308
2017-02-24T08:09:24.941Z,11632
2017-02-24T08:10:36.442Z,14740
2017-02-24T08:11:47.958Z,16448
2017-02-24T08:12:59.483Z,16256
2017-02-24T08:14:11.032Z,17760
2017-02-24T08:15:22.525Z,24704
2017-02-24T08:16:34.024Z,36576
2017-02-24T08:17:45.540Z,42624
2017-02-24T08:18:57.054Z,35296
2017-02-24T08:20:08.561Z,48160
2017-02-24T08:21:20.089Z,29152
2017-02-24T08:22:31.571Z,30336
2017-02-24T08:23:43.071Z,25184
2017-02-24T08:24:54.834Z,27584
2017-02-24T08:26:06.538Z,28352
2017-02-24T08:27:18.045Z,33120
2017-02-24T08:28:29.535Z,35072
2017-02-24T08:29:41.061Z,37728
2017-02-24T08:30:52.564Z,47392
2017-02-24T08:32:04.075Z,53312
2017-02-24T08:33:15.796Z,50080
2017-02-24T08:34:27.291Z,47744
2017-02-24T08:35:38.800Z,26528
2017-02-24T08:36:50.363Z,35104
2017-02-24T08:38:01.877Z,52992
2017-02-24T08:39:13.387Z,58400
2017-02-24T08:40:24.904Z,51680
2017-02-24T08:41:36.407Z,67360
2017-02-24T08:42:47.910Z,64896
2017-02-24T08:43:59.409Z,57824
2017-02-24T08:45:10.915Z,49024
2017-02-24T08:46:22.481Z,54272
2017-02-24T08:47:34.180Z,44640
2017-02-24T08:48:45.719Z,41952
2017-02-24T08:49:57.229Z,31776
2017-02-24T08:51:08.755Z,29632
2017-02-24T08:52:20.275Z,36896
2017-02-24T08:53:32.031Z,35104
2017-02-24T08:54:43.534Z,30688
2017-02-24T08:55:55.020Z,24352
2017-02-24T08:57:06.588Z,30528
2017-02-24T08:58:18.079Z,38752
2017-02-24T08:59:29.587Z,32544
2017-02-24T09:00:41.114Z,33856
2017-02-24T09:01:52.627Z,44128
2017-02-24T09:03:04.337Z,49888
2017-02-24T09:04:15.893Z,44192
2017-02-24T09:05:27.418Z,47904
2017-02-24T09:06:38.939Z,39840
2017-02-24T09:07:50.614Z,28736
2017-02-24T09:09:02.312Z,26016
2017-02-24T09:10:13.832Z,24320
2017-02-24T09:11:25.325Z,23168
2017-02-24T09:12:36.853Z,23456
2017-02-24T09:13:48.400Z,21344
2017-02-24T09:14:59.915Z,22112
2017-02-24T09:16:11.426Z,30400
2017-02-24T09:17:23.141Z,43392
2017-02-24T09:18:34.653Z,42080
2017-02-24T09:19:46.205Z,44928
2017-02-24T09:20:57.718Z,36576
2017-02-24T09:22:09.231Z,43584
2017-02-24T09:23:20.739Z,47296
2017-02-24T09:24:32.241Z,40928
2017-02-24T09:25:43.743Z,40864
2017-02-24T09:26:55.248Z,37312
2017-02-24T09:28:06.759Z,44608
2017-02-24T09:29:18.306Z,44352
2017-02-24T09:30:29.825Z,52320
2017-02-24T09:31:41.584Z,58336
2017-02-24T09:32:53.279Z,52864
2017-02-24T09:34:04.790Z,56736
2017-02-24T09:35:16.282Z,67104
2017-02-24T09:36:28.038Z,59648
2017-02-24T09:37:39.561Z,62880
2017-02-24T09:38:51.091Z,53056
2017-02-24T09:40:02.644Z,46720
2017-02-24T09:41:14.151Z,59680
2017-02-24T09:42:25.843Z,48256
2017-02-24T09:43:37.391Z,44608
2017-02-24T09:44:48.907Z,51616
2017-02-24T09:46:00.616Z,57856
2017-02-24T09:47:12.142Z,60160
2017-02-24T09:48:23.632Z,54496
2017-02-24T09:49:35.146Z,64864
2017-02-24T09:50:46.712Z,70176
2017-02-24T09:51:58.212Z,72224
2017-02-24T09:53:09.733Z,67008
2017-02-24T09:54:21.449Z,73824
2017-02-24T09:55:32.974Z,72672
2017-02-24T09:56:44.493Z,69344
2017-02-24T09:57:56.024Z,31360
2017-02-24T09:59:07.546Z,27840
2017-02-24T10:00:19.282Z,12504
2017-02-24T10:01:30.806Z,75296
2017-02-24T10:02:42.594Z,73824
2017-02-24T10:03:54.123Z,12532
2017-02-24T10:05:05.673Z,74944
2017-02-24T10:06:17.242Z,74240
2017-02-24T10:07:28.814Z,72160
2017-02-24T10:08:40.320Z,71872
2017-02-24T10:09:52.038Z,73920
2017-02-24T10:11:03.755Z,70432
2017-02-24T10:12:15.361Z,19168
2017-02-24T10:13:26.933Z,74560
2017-02-24T10:14:38.671Z,76224
2017-02-24T10:15:50.187Z,74912
2017-02-24T10:17:01.727Z,75968
2017-02-24T10:18:13.263Z,73760
2017-02-24T10:19:24.771Z,73536
2017-02-24T10:20:36.493Z,26944
2017-02-24T10:21:47.996Z,22752
2017-02-24T10:22:59.551Z,10692
2017-02-24T10:24:11.090Z,12356
2017-02-24T10:25:22.604Z,67648
2017-02-24T10:26:34.103Z,72832
2017-02-24T10:27:45.830Z,17376
2017-02-24T10:28:57.357Z,15132
2017-02-24T10:30:08.884Z,21024
2017-02-24T10:31:20.393Z,24320
2017-02-24T10:32:31.929Z,75104
2017-02-24T10:33:43.523Z,32096
2017-02-24T10:34:55.242Z,15008
2017-02-24T10:36:06.784Z,15204
2017-02-24T10:37:18.325Z,71616
2017-02-24T10:38:30.241Z,74880
2017-02-24T10:39:41.777Z,20576
2017-02-24T10:40:53.286Z,15392
2017-02-24T10:42:04.994Z,68832
2017-02-24T10:43:16.498Z,12968
2017-02-24T10:44:28.064Z,9080
2017-02-24T10:45:39.786Z,10664
2017-02-24T10:46:51.312Z,20576
2017-02-24T10:48:02.813Z,9408
2017-02-24T10:49:14.317Z,11420
2017-02-24T10:50:25.855Z,61248
2017-02-24T10:51:37.402Z,68832
2017-02-24T10:52:49.310Z,68448
2017-02-24T10:54:00.846Z,67680
2017-02-24T10:55:12.326Z,67424
2017-02-24T10:56:23.833Z,68960
2017-02-24T10:57:35.559Z,20640
2017-02-24T10:58:47.065Z,66880
2017-02-24T10:59:58.581Z,69184
2017-02-24T11:01:10.155Z,13400
2017-02-24T11:02:21.649Z,10084
2017-02-24T11:03:33.173Z,9696
2017-02-24T11:04:44.709Z,46592
2017-02-24T11:05:56.214Z,67488
2017-02-24T11:07:07.737Z,10296
2017-02-24T11:08:19.252Z,10208
2017-02-24T11:09:30.769Z,69056
2017-02-24T11:10:42.293Z,74432
2017-02-24T11:11:53.855Z,73664
2017-02-24T11:13:05.362Z,75168
2017-02-24T11:14:16.856Z,71520
2017-02-24T11:15:28.397Z,69472
2017-02-24T11:16:39.891Z,68928
2017-02-24T11:17:51.602Z,68992
2017-02-24T11:19:03.111Z,65760
2017-02-24T11:20:14.619Z,67040
2017-02-24T11:21:26.137Z,66400
2017-02-24T11:22:37.669Z,64928
2017-02-24T11:23:49.162Z,24096
2017-02-24T11:25:00.693Z,65920
2017-02-24T11:26:12.197Z,22048
2017-02-24T11:27:23.904Z,41472
2017-02-24T11:28:35.513Z,21536
2017-02-24T11:29:47.017Z,19616
2017-02-24T11:30:58.512Z,9752
2017-02-24T11:32:10.225Z,6172
2017-02-24T11:33:21.736Z,4964
2017-02-24T11:34:33.253Z,3408
2017-02-24T11:35:44.975Z,2108
2017-02-24T11:36:56.479Z,1608
2017-02-24T11:38:08.027Z,1652
2017-02-24T11:39:19.594Z,1284
2017-02-24T11:40:31.106Z,1280
2017-02-24T11:41:42.652Z,1544
2017-02-24T11:42:54.143Z,2028
2017-02-24T11:44:06.043Z,3144
2017-02-24T11:45:17.544Z,3072
2017-02-24T11:46:29.042Z,1964
2017-02-24T11:47:40.757Z,1676
2017-02-24T11:48:52.317Z,2224
2017-02-24T11:50:03.819Z,2812
2017-02-24T11:51:15.299Z,3444
2017-02-24T11:52:26.831Z,3820
2017-02-24T11:53:38.326Z,4172
2017-02-24T11:54:49.816Z,4356
2017-02-24T11:56:01.314Z,4804
2017-02-24T11:57:12.830Z,7332
2017-02-24T11:58:24.327Z,6668
2017-02-24T11:59:35.847Z,6224
2017-02-24T12:00:47.349Z,6180
2017-02-24T12:01:58.850Z,7832
2017-02-24T12:03:10.553Z,8660
2017-02-24T12:04:22.051Z,7556
2017-02-24T12:05:33.750Z,7192
2017-02-24T12:06:45.285Z,10384
2017-02-24T12:07:56.785Z,29856
2017-02-24T12:09:08.301Z,25344
2017-02-24T12:10:19.796Z,9268
2017-02-24T12:11:31.287Z,10068
2017-02-24T12:12:43.060Z,34240
2017-02-24T12:13:54.578Z,34496
2017-02-24T12:15:06.339Z,33312
2017-02-24T12:16:17.847Z,12368
2017-02-24T12:17:29.336Z,29632
2017-02-24T12:18:40.864Z,30304
2017-02-24T12:19:52.575Z,26336
2017-02-24T12:21:04.062Z,8392
2017-02-24T12:22:15.565Z,7848
2017-02-24T12:23:27.074Z,7364
2017-02-24T12:24:38.602Z,7152
2017-02-24T12:25:50.161Z,6964
2017-02-24T12:27:01.676Z,23680
2017-02-24T12:28:13.185Z,24032
2017-02-24T12:29:24.698Z,18272
2017-02-24T12:30:36.192Z,17696
2017-02-24T12:31:47.705Z,17664
2017-02-24T12:32:59.401Z,20224
2017-02-24T12:34:10.911Z,20544
2017-02-24T12:35:22.407Z,17056
2017-02-24T12:36:33.953Z,14752
2017-02-24T12:37:45.459Z,13592
2017-02-24T12:38:56.976Z,13900
2017-02-24T12:40:08.685Z,12776
2017-02-24T12:41:20.192Z,15488
2017-02-24T12:42:31.709Z,16672
2017-02-24T12:43:43.223Z,15616
2017-02-24T12:44:54.720Z,17184
2017-02-24T12:46:06.227Z,19808
2017-02-24T12:47:17.787Z,18240
2017-02-24T12:48:29.276Z,17408
2017-02-24T12:49:40.781Z,18432
2017-02-24T12:50:52.300Z,16576
2017-02-24T12:52:04.000Z,13296
2017-02-24T12:53:15.482Z,11044
2017-02-24T12:54:26.990Z,7496
2017-02-24T12:55:38.489Z,7552
2017-02-24T12:56:49.990Z,9900
2017-02-24T12:58:01.503Z,18176
2017-02-24T12:59:13.019Z,18080
2017-02-24T13:00:24.515Z,18432
2017-02-24T13:01:36.220Z,17216
2017-02-24T13:02:47.730Z,17216
2017-02-24T13:03:59.286Z,12704
2017-02-24T13:05:10.796Z,14336
2017-02-24T13:06:22.292Z,11684
2017-02-24T13:07:33.801Z,9436
2017-02-24T13:08:45.300Z,7656
2017-02-24T13:09:56.798Z,6488
2017-02-24T13:11:08.325Z,5608
2017-02-24T13:12:19.830Z,5060
2017-02-24T13:13:31.355Z,6108
2017-02-24T13:14:42.915Z,9224
2017-02-24T13:15:54.427Z,9220
2017-02-24T13:17:05.940Z,9684
2017-02-24T13:18:17.645Z,7732
2017-02-24T13:19:29.340Z,8640
2017-02-24T13:20:41.048Z,9176
2017-02-24T13:21:52.777Z,9740
2017-02-24T13:23:04.319Z,10136
2017-02-24T13:24:15.835Z,10092
2017-02-24T13:25:27.601Z,9876
2017-02-24T13:26:39.111Z,12304
2017-02-24T13:27:50.602Z,12256
2017-02-24T13:29:02.111Z,11616
2017-02-24T13:30:13.605Z,10732
2017-02-24T13:31:25.105Z,9704
2017-02-24T13:32:36.804Z,8848
2017-02-24T13:33:48.317Z,7892
2017-02-24T13:34:59.816Z,6908
2017-02-24T13:36:11.371Z,6172
2017-02-24T13:37:22.881Z,6020
2017-02-24T13:38:34.388Z,6272
2017-02-24T13:39:45.889Z,6588
2017-02-24T13:40:57.404Z,6588
2017-02-24T13:42:08.911Z,6596
2017-02-24T13:43:20.432Z,6356
2017-02-24T13:44:31.949Z,6056
2017-02-24T13:45:43.468Z,5776
2017-02-24T13:46:55.165Z,5632
2017-02-24T13:48:06.702Z,5548
2017-02-24T13:49:18.221Z,5512
2017-02-24T13:50:29.935Z,5928
2017-02-24T13:51:41.428Z,6056
2017-02-24T13:52:52.941Z,5992
2017-02-24T13:54:04.461Z,5956
2017-02-24T13:55:15.941Z,5952
2017-02-24T13:56:27.671Z,5940
2017-02-24T13:57:39.228Z,5928
2017-02-24T13:58:50.737Z,5872
2017-02-24T14:00:02.261Z,5896
2017-02-24T14:01:13.753Z,6068
2017-02-24T14:02:25.253Z,5880
2017-02-24T14:03:36.795Z,5260
2017-02-24T14:04:48.545Z,5032
2017-02-24T14:06:00.244Z,5020
2017-02-24T14:07:11.959Z,4976
2017-02-24T14:08:23.511Z,4872
2017-02-24T14:09:35.033Z,4740
2017-02-24T14:10:46.536Z,4976
2017-02-24T14:11:58.252Z,5184
2017-02-24T14:13:09.775Z,5112
2017-02-24T14:14:21.293Z,5348
2017-02-24T14:15:32.815Z,5504
2017-02-24T14:16:44.322Z,5400
2017-02-24T14:17:55.836Z,5352
2017-02-24T14:19:07.605Z,5416
2017-02-24T14:20:19.118Z,5420
2017-02-24T14:21:30.627Z,5252
2017-02-24T14:22:42.138Z,5096
2017-02-24T14:23:53.644Z,5192
2017-02-24T14:25:05.134Z,5276
2017-02-24T14:26:16.652Z,5300
2017-02-24T14:27:28.139Z,5244
2017-02-24T14:28:39.649Z,5208
2017-02-24T14:29:51.221Z,5376
2017-02-24T14:31:02.722Z,5264
2017-02-24T14:32:14.224Z,5080
2017-02-24T14:33:25.716Z,4916
2017-02-24T14:34:37.203Z,4784
2017-02-24T14:35:48.985Z,4688
2017-02-24T14:37:00.492Z,4640
2017-02-24T14:38:12.014Z,4628
2017-02-24T14:39:23.737Z,4536
2017-02-24T14:40:35.231Z,4480
2017-02-24T14:41:46.793Z,4436
2017-02-24T14:42:58.299Z,4344
2017-02-24T14:44:09.789Z,4280
2017-02-24T14:45:21.286Z,4212
2017-02-24T14:46:32.790Z,4160
2017-02-24T14:47:44.335Z,4136
2017-02-24T14:48:56.027Z,4072
2017-02-24T14:50:07.535Z,4008
2017-02-24T14:51:19.074Z,3980
2017-02-24T14:52:30.598Z,3936
2017-02-24T14:53:42.158Z,3924
2017-02-24T14:54:53.664Z,3928
2017-02-24T14:56:05.199Z,3952
2017-02-24T14:57:16.708Z,4008
2017-02-24T14:58:28.416Z,4056
2017-02-24T14:59:39.955Z,4280
2017-02-24T15:00:51.657Z,4372
2017-02-24T15:02:03.168Z,3716
2017-02-24T15:03:14.662Z,4652
2017-02-24T15:04:26.159Z,5052
2017-02-24T15:05:37.928Z,5368
2017-02-24T15:06:49.461Z,5632
2017-02-24T15:08:00.984Z,5812
2017-02-24T15:09:12.503Z,5800
2017-02-24T15:10:24.217Z,5724
2017-02-24T15:11:35.777Z,5200
2017-02-24T15:12:47.673Z,4964
2017-02-24T15:13:59.189Z,4952
2017-02-24T15:15:10.705Z,4408
2017-02-24T15:16:22.198Z,3396
2017-02-24T15:17:33.743Z,3168
2017-02-24T15:18:45.295Z,3100
2017-02-24T15:19:56.776Z,2772
2017-02-24T15:21:08.287Z,2488
2017-02-24T15:22:19.800Z,2256
2017-02-24T15:23:31.359Z,2016
2017-02-24T15:24:42.870Z,1856
2017-02-24T15:25:54.376Z,1824
2017-02-24T15:27:05.950Z,2412
2017-02-24T15:28:17.439Z,1700
2017-02-24T15:29:28.989Z,1820
2017-02-24T15:30:40.490Z,2096
2017-02-24T15:31:52.011Z,2096
2017-02-24T15:33:03.545Z,1516
2017-02-24T15:34:15.256Z,1772
2017-02-24T15:35:26.803Z,1340
2017-02-24T15:36:38.531Z,1304
2017-02-24T15:37:50.029Z,1308
2017-02-24T15:39:01.739Z,1240
2017-02-24T15:40:13.269Z,1204
2017-02-24T15:41:24.840Z,1160
2017-02-24T15:42:36.336Z,1164
2017-02-24T15:43:47.838Z,1196
2017-02-24T15:44:59.341Z,1296
2017-02-24T15:46:10.833Z,1392
2017-02-24T15:47:22.399Z,1448
2017-02-24T15:48:34.110Z,1464
2017-02-24T15:49:45.641Z,1516
2017-02-24T15:50:57.175Z,1652
2017-02-24T15:52:08.680Z,1836
2017-02-24T15:53:20.213Z,2180
2017-02-24T15:54:31.723Z,2324
2017-02-24T15:55:43.238Z,2052
2017-02-24T15:56:54.753Z,1944
2017-02-24T15:58:06.239Z,2216
2017-02-24T15:59:17.779Z,2172
2017-02-24T16:00:29.465Z,2064
2017-02-24T16:01:40.980Z,1988
2017-02-24T16:02:52.480Z,1912
2017-02-24T16:04:04.009Z,1716
2017-02-24T16:05:15.555Z,1696
2017-02-24T16:06:27.052Z,1640
2017-02-24T16:07:38.575Z,1464
2017-02-24T16:08:50.078Z,1508
2017-02-24T16:10:01.581Z,1512
2017-02-24T16:11:13.362Z,1468
2017-02-24T16:12:24.877Z,1440
2017-02-24T16:13:36.593Z,1428
2017-02-24T16:14:48.110Z,1452
2017-02-24T16:15:59.616Z,1680
2017-02-24T16:17:11.166Z,1636
2017-02-24T16:18:22.670Z,1592
2017-02-24T16:19:34.380Z,1564
2017-02-24T16:20:45.883Z,1544
2017-02-24T16:21:57.389Z,1544
2017-02-24T16:23:08.944Z,1564